Bellefontaine, OH

5:06 AM EDT on March 30, 2017 (GMT -0400)
Bellefontaine

Weather History for KEDJ - October, 2013

Change the Weather History Date:

Wednesday, October 16, 2013

  Actual Average (KDAY) Record (KDAY)
Temperature  
Mean Temperature 54 °F -  
Max Temperature 64 °F 62 °F 89 °F (1897)
Min Temperature 44 °F 44 °F 28 °F (1991)
Degree Days  
Heating Degree Days 11    
Growing Degree Days 4 (Base 50)    
Moisture  
Dew Point 54 °F    
Average Humidity 88    
Maximum Humidity 100    
Minimum Humidity 55    
Precipitation  
Precipitation 0.18 in - - ()
Sea Level Pressure  
Sea Level Pressure 29.89 in    
Wind  
Wind Speed 9 mph (SW)    
Max Wind Speed 15 mph    
Max Gust Speed 24 mph    
Visibility 8 miles    
Events      
Averages and records for this station are not official NWS values.
T = Trace of Precipitation, MM = Missing Value Source: NWS Daily Summary

Daily Weather History Graph

Daily Weather History Graph

Search for Another Location

Airport or City:

Trip Planner

Search our weather history database for the weather conditions in past years. The results will help you decide how hot, cold, wet, or windy it might be!

Date:

Astronomy

Oct. 16, 2013 Rise Set
Actual Time 7:47 AM EDT 6:53 PM EDT
Civil Twilight 7:19 AM EDT 7:20 PM EDT
Nautical Twilight 6:48 AM EDT 7:52 PM EDT
Astronomical Twilight 6:16 AM EDT 8:23 PM EDT
Moon 5:32 PM EDT (10/16) 5:13 AM EDT (10/16)
Length of Visible Light 12h 00m
Length of Day
11h 06m
Waxing Gibbous, 94% of the Moon is Illuminated
Oct 16
Waxing Gibbous
Oct 18
Full
Oct 26
Last Quarter
Nov 3
New
Nov 10
First Quarter

Hourly Weather History & Observations

Time (EDT) Temp. Windchill Dew Point Humidity Pressure Visibility Wind Dir Wind Speed Gust Speed Precip Events Conditions
12:10 AM 62.6 °F - 62.6 °F 100% 29.93 in 10.0 mi South 12.7 mph - 0.00 in   Mostly Cloudy
12:30 AM 62.6 °F - 62.6 °F 100% 29.93 in 2.5 mi SSW 13.8 mph 19.6 mph 0.00 in   Overcast
12:50 AM 60.8 °F - 60.8 °F 100% 29.91 in 5.0 mi SSW 11.5 mph 24.2 mph 0.00 in   Overcast
1:10 AM 62.6 °F - 62.6 °F 100% 29.91 in 10.0 mi SSW 11.5 mph 17.3 mph 0.00 in   Mostly Cloudy
1:30 AM 62.6 °F - 62.6 °F 100% 29.91 in 10.0 mi SSW 9.2 mph - 0.00 in   Overcast
1:50 AM 62.6 °F - 62.6 °F 100% 29.91 in 10.0 mi SSW 10.4 mph 17.3 mph 0.00 in   Overcast
2:10 AM 62.6 °F - 62.6 °F 100% 29.91 in 10.0 mi SSW 10.4 mph - 0.00 in   Overcast
2:30 AM 62.6 °F - 62.6 °F 100% 29.90 in 10.0 mi SSW 10.4 mph - 0.01 in   Overcast
2:50 AM 60.8 °F - 60.8 °F 100% 29.90 in 9.0 mi SSW 10.4 mph - 0.01 in   Overcast
3:10 AM 60.8 °F - 60.8 °F 100% 29.90 in 4.0 mi SSW 8.1 mph - 0.01 in   Overcast
3:30 AM 60.8 °F - 60.8 °F 100% 29.89 in 4.0 mi SSW 10.4 mph - 0.02 in   Overcast
3:50 AM 60.8 °F - 60.8 °F 100% 29.89 in 3.0 mi SSW 8.1 mph - 0.02 in   Overcast
4:10 AM 60.8 °F - 60.8 °F 100% 29.88 in 5.0 mi SSW 8.1 mph - 0.00 in   Overcast
4:30 AM 60.8 °F - 60.8 °F 100% 29.88 in 4.0 mi South 8.1 mph - 0.01 in   Mostly Cloudy
4:50 AM 60.8 °F - 60.8 °F 100% 29.87 in 2.5 mi South 8.1 mph - 0.03 in   Overcast
5:10 AM 60.8 °F - 60.8 °F 100% 29.87 in 2.0 mi South 5.8 mph - 0.03 in   Overcast
5:30 AM 60.8 °F - 60.8 °F 100% 29.87 in 3.0 mi South 8.1 mph - 0.07 in   Overcast
5:50 AM 60.8 °F - 60.8 °F 100% 29.87 in 3.0 mi South 6.9 mph - 0.09 in   Overcast
6:10 AM 60.8 °F - 60.8 °F 100% 29.87 in 2.0 mi SSW 6.9 mph - 0.02 in   Overcast
6:30 AM 60.8 °F - 60.8 °F 100% 29.87 in 3.0 mi SW 4.6 mph - 0.03 in   Overcast
6:50 AM 60.8 °F - 60.8 °F 100% 29.87 in 10.0 mi South 5.8 mph - 0.03 in   Overcast
7:10 AM 60.8 °F - 60.8 °F 100% 29.87 in 10.0 mi South 4.6 mph - 0.00 in   Mostly Cloudy
7:30 AM 60.8 °F - 60.8 °F 100% 29.88 in 10.0 mi SSW 5.8 mph - 0.00 in   Overcast
7:50 AM 60.8 °F - 60.8 °F 100% 29.87 in 10.0 mi South 4.6 mph - 0.00 in   Overcast
8:10 AM 60.8 °F - 60.8 °F 100% 29.88 in 9.0 mi SSW 4.6 mph - 0.00 in   Overcast
8:30 AM 60.8 °F - 60.8 °F 100% 29.89 in 8.0 mi SSW 5.8 mph - 0.00 in   Overcast
8:50 AM 60.8 °F - 60.8 °F 100% 29.88 in 8.0 mi SSW 8.1 mph - 0.00 in   Overcast
9:10 AM 60.8 °F - 60.8 °F 100% 29.88 in 8.0 mi SSW 5.8 mph - 0.00 in   Overcast
9:30 AM 60.8 °F - 60.8 °F 100% 29.88 in 7.0 mi SSW 8.1 mph - 0.00 in   Overcast
9:50 AM 60.8 °F - 60.8 °F 100% 29.89 in 5.0 mi West 6.9 mph - 0.00 in   Overcast
10:10 AM 57.2 °F - 57.2 °F 100% 29.89 in 10.0 mi West 9.2 mph - 0.00 in   Overcast
10:30 AM 57.2 °F - 57.2 °F 100% 29.89 in 10.0 mi West 6.9 mph - 0.00 in   Overcast
10:50 AM 57.2 °F - 57.2 °F 100% 29.90 in 10.0 mi West 9.2 mph - 0.00 in   Overcast
11:10 AM 57.2 °F - 57.2 °F 100% 29.89 in 4.0 mi West 5.8 mph - 0.00 in   Overcast
11:30 AM 55.4 °F - 55.4 °F 100% 29.90 in 9.0 mi West 5.8 mph - 0.00 in   Overcast
11:50 AM 55.4 °F - 55.4 °F 100% 29.90 in 5.0 mi WSW 6.9 mph - 0.00 in   Overcast
12:10 PM 55.4 °F - 55.4 °F 100% 29.89 in 10.0 mi WSW 5.8 mph - 0.00 in   Overcast
12:30 PM 57.2 °F - 57.2 °F 100% 29.89 in 10.0 mi WSW 4.6 mph - 0.00 in   Overcast
12:50 PM 57.2 °F - 57.2 °F 100% 29.89 in 10.0 mi SW 6.9 mph - 0.00 in   Overcast
1:10 PM 60.8 °F - 59.0 °F 94% 29.89 in 10.0 mi WSW 11.5 mph - 0.00 in   Mostly Cloudy
1:30 PM 60.8 °F - 55.4 °F 82% 29.88 in 10.0 mi WSW 13.8 mph 19.6 mph 0.00 in   Scattered Clouds
1:50 PM 62.6 °F - 53.6 °F 72% 29.88 in 10.0 mi WSW 13.8 mph - 0.00 in   Scattered Clouds
2:10 PM 62.6 °F - 53.6 °F 72% 29.87 in 10.0 mi WSW 11.5 mph - 0.00 in   Mostly Cloudy
2:30 PM 62.6 °F - 51.8 °F 68% 29.87 in 10.0 mi West 12.7 mph - 0.00 in   Scattered Clouds
2:50 PM 62.6 °F - 48.2 °F 59% 29.87 in 10.0 mi WSW 15.0 mph 19.6 mph 0.00 in   Scattered Clouds
3:10 PM 64.4 °F - 48.2 °F 56% 29.87 in 10.0 mi WSW 10.4 mph - 0.00 in   Clear
3:30 PM 64.4 °F - 48.2 °F 56% 29.87 in 10.0 mi West 11.5 mph - 0.00 in   Partly Cloudy
3:50 PM 62.6 °F - 46.4 °F 55% 29.87 in 10.0 mi West 11.5 mph - 0.00 in   Scattered Clouds
4:10 PM 60.8 °F - 44.6 °F 55% 29.88 in 10.0 mi West 10.4 mph - 0.00 in   Scattered Clouds
4:30 PM 60.8 °F - 46.4 °F 59% 29.88 in 10.0 mi West 8.1 mph - 0.00 in   Partly Cloudy
4:50 PM 60.8 °F - 46.4 °F 59% 29.88 in 10.0 mi West 9.2 mph - 0.00 in   Partly Cloudy
5:10 PM 60.8 °F - 46.4 °F 59% 29.88 in 10.0 mi West 8.1 mph - 0.00 in   Clear
5:30 PM 60.8 °F - 46.4 °F 59% 29.88 in 10.0 mi West 6.9 mph - 0.00 in   Clear
5:50 PM 60.8 °F - 44.6 °F 55% 29.88 in 10.0 mi West 6.9 mph - 0.00 in   Clear
6:10 PM 59.0 °F - 44.6 °F 59% 29.88 in 10.0 mi West 6.9 mph - 0.00 in   Clear
6:30 PM 57.2 °F - 44.6 °F 63% 29.89 in 10.0 mi West 5.8 mph - 0.00 in   Clear
6:50 PM 55.4 °F - 44.6 °F 67% 29.88 in 10.0 mi West 4.6 mph - 0.00 in   Clear
7:10 PM 53.6 °F - 44.6 °F 72% 29.89 in 10.0 mi West 4.6 mph - 0.00 in   Clear
7:30 PM 53.6 °F - 44.6 °F 72% 29.90 in 10.0 mi West 3.5 mph - 0.00 in   Clear
7:50 PM 51.8 °F - 44.6 °F 76% 29.91 in 10.0 mi Calm Calm - 0.00 in   Clear
8:10 PM 51.8 °F - 44.6 °F 76% 29.91 in 10.0 mi West 3.5 mph - 0.00 in   Clear
8:30 PM 51.8 °F - 42.8 °F 71% 29.92 in 10.0 mi WNW 5.8 mph - 0.00 in   Clear
8:50 PM 48.2 °F - 44.6 °F 87% 29.92 in 10.0 mi WNW 4.6 mph - 0.00 in   Clear
9:30 PM 48.2 °F - 42.8 °F 82% 29.93 in 10.0 mi NW 5.8 mph - 0.00 in   Clear
9:50 PM 48.2 °F - 42.8 °F 82% 29.95 in 10.0 mi NW 6.9 mph - 0.00 in   Clear
10:10 PM 46.4 °F 42.9 °F 42.8 °F 87% 29.95 in 10.0 mi NW 6.9 mph - 0.00 in   Clear
10:30 PM 46.4 °F - 42.8 °F 87% 29.96 in 10.0 mi Calm Calm - 0.00 in   Clear
10:50 PM 44.6 °F 43.1 °F 42.8 °F 93% 29.95 in 10.0 mi NNW 3.5 mph - 0.00 in   Clear
11:10 PM 44.6 °F - 42.8 °F 93% 29.95 in 10.0 mi Calm Calm - 0.00 in   Clear
11:30 PM 44.6 °F - 42.8 °F 93% 29.95 in 10.0 mi Calm Calm - 0.00 in   Clear
11:50 PM 44.6 °F - 42.8 °F 93% 29.94 in 10.0 mi Calm Calm - 0.00 in   Clear